createdAt,value
2018-07-31T00:02:23.102Z,99923.34
2018-07-31T00:04:49.132Z,99922.34
2018-07-31T00:07:15.126Z,99923.37
2018-07-31T00:09:41.086Z,99925.39
2018-07-31T00:12:07.163Z,99918.83
2018-07-31T00:14:33.194Z,99921.48
2018-07-31T00:16:59.222Z,99918.91
2018-07-31T00:19:25.287Z,99920.10
2018-07-31T00:21:51.339Z,99915.89
2018-07-31T00:24:18.080Z,99919.52
2018-07-31T00:26:44.778Z,99917.58
2018-07-31T00:29:11.316Z,99920.47
2018-07-31T00:31:37.302Z,99917.05
2018-07-31T00:34:03.252Z,99913.28
2018-07-31T00:36:29.225Z,99912.42
2018-07-31T00:38:55.227Z,99910.89
2018-07-31T00:41:21.222Z,99907.41
2018-07-31T00:43:47.220Z,99909.87
2018-07-31T00:46:13.227Z,99904.71
2018-07-31T00:48:39.263Z,99907.55
2018-07-31T00:51:05.273Z,99909.16
2018-07-31T00:53:31.237Z,99904.14
2018-07-31T00:55:57.279Z,99909.48
2018-07-31T00:58:23.318Z,99911.80
2018-07-31T01:00:49.290Z,99913.72
2018-07-31T01:03:15.290Z,99914.38
2018-07-31T01:05:41.291Z,99916.52
2018-07-31T01:08:07.355Z,99915.65
2018-07-31T01:10:34.429Z,99913.38
2018-07-31T01:13:00.422Z,99909.61
2018-07-31T01:15:26.464Z,99915.14
2018-07-31T01:17:52.477Z,99914.33
2018-07-31T01:20:18.541Z,99912.55
2018-07-31T01:22:44.549Z,99908.11
2018-07-31T01:25:10.626Z,99905.55
2018-07-31T01:27:36.666Z,99905.76
2018-07-31T01:30:03.295Z,99905.24
2018-07-31T01:32:29.329Z,99904.36
2018-07-31T01:34:55.382Z,99915.55
2018-07-31T01:37:21.383Z,99916.09
2018-07-31T01:39:47.424Z,99913.97
2018-07-31T01:42:13.421Z,99904.28
2018-07-31T01:44:39.737Z,99901.52
2018-07-31T01:47:05.790Z,99892.97
2018-07-31T01:49:31.756Z,99896.67
2018-07-31T01:51:57.725Z,99900.61
2018-07-31T01:54:23.717Z,99899.19
2018-07-31T01:56:49.711Z,99895.95
2018-07-31T01:59:15.692Z,99895.05
2018-07-31T02:01:41.658Z,99898.66
2018-07-31T02:04:07.640Z,99896.67
2018-07-31T02:06:33.598Z,99890.98
2018-07-31T02:08:59.572Z,99895.62
2018-07-31T02:11:25.566Z,99894.47
2018-07-31T02:13:51.574Z,99893.37
2018-07-31T02:16:17.624Z,99892.91
2018-07-31T02:18:43.647Z,99893.28
2018-07-31T02:21:09.629Z,99895.70
2018-07-31T02:23:35.634Z,99900.80
2018-07-31T02:26:01.698Z,99893.97
2018-07-31T02:28:27.794Z,99894.19
2018-07-31T02:30:53.754Z,99893.75
2018-07-31T02:33:19.745Z,99901.16
2018-07-31T02:35:45.723Z,99893.83
2018-07-31T02:38:11.701Z,99895.89
2018-07-31T02:40:37.739Z,99896.17
2018-07-31T02:43:03.748Z,99893.59
2018-07-31T02:45:29.709Z,99895.63
2018-07-31T02:47:55.714Z,99893.42
2018-07-31T02:50:21.685Z,99891.46
2018-07-31T02:52:47.709Z,99895.19
2018-07-31T02:55:13.742Z,99897.52
2018-07-31T02:57:39.722Z,99898.84
2018-07-31T03:00:05.706Z,99905.09
2018-07-31T03:02:31.666Z,99901.69
2018-07-31T03:04:57.639Z,99899.45
2018-07-31T03:07:23.648Z,99900.86
2018-07-31T03:09:49.620Z,99906.66
2018-07-31T03:12:15.640Z,99899.84
2018-07-31T03:14:41.612Z,99903.23
2018-07-31T03:17:08.898Z,99901.15
2018-07-31T03:19:34.952Z,99898.64
2018-07-31T03:22:00.991Z,99900.41
2018-07-31T03:24:26.982Z,99896.38
2018-07-31T03:26:52.965Z,99898.98
2018-07-31T03:29:18.997Z,99897.55
2018-07-31T03:31:44.960Z,99890.59
2018-07-31T03:34:11.013Z,99890.78
2018-07-31T03:36:37.019Z,99890.77
2018-07-31T03:39:03.045Z,99890.84
2018-07-31T03:41:29.040Z,99892.97
2018-07-31T03:43:55.019Z,99886.88
2018-07-31T03:46:21.007Z,99892.59
2018-07-31T03:48:47.010Z,99892.59
2018-07-31T03:51:13.042Z,99898.61
2018-07-31T03:53:39.016Z,99896.30
2018-07-31T03:56:05.016Z,99891.27
2018-07-31T03:58:30.982Z,99893.31
2018-07-31T04:00:56.957Z,99893.89
2018-07-31T04:03:22.945Z,99898.72
2018-07-31T04:05:50.577Z,99892.43
2018-07-31T04:08:16.566Z,99890.91
2018-07-31T04:10:42.514Z,99895.39
2018-07-31T04:13:08.468Z,99894.66
2018-07-31T04:15:34.456Z,99887.60
2018-07-31T04:18:00.513Z,99893.91
2018-07-31T04:20:26.557Z,99895.39
2018-07-31T04:22:53.436Z,99893.28
2018-07-31T04:25:19.428Z,99896.13
2018-07-31T04:27:45.364Z,99889.09
2018-07-31T04:30:11.467Z,99893.17
2018-07-31T04:32:37.576Z,99890.58
2018-07-31T04:35:03.616Z,99886.61
2018-07-31T04:37:29.665Z,99885.84
2018-07-31T04:39:55.622Z,99892.42
2018-07-31T04:42:21.593Z,99889.39
2018-07-31T04:44:47.594Z,99897.65
2018-07-31T04:47:13.573Z,99901.81
2018-07-31T04:49:39.545Z,99899.60
2018-07-31T04:52:05.565Z,99903.85
2018-07-31T04:54:31.799Z,99903.23
2018-07-31T04:56:57.816Z,99898.78
2018-07-31T04:59:23.814Z,99900.65
2018-07-31T05:01:49.799Z,99902.19
2018-07-31T05:04:15.806Z,99904.59
2018-07-31T05:06:41.774Z,99904.56
2018-07-31T05:09:07.778Z,99909.28
2018-07-31T05:11:33.756Z,99902.61
2018-07-31T05:13:59.715Z,99901.70
2018-07-31T05:16:25.767Z,99901.12
2018-07-31T05:18:51.745Z,99901.04
2018-07-31T05:21:17.800Z,99903.72
2018-07-31T05:23:43.778Z,99905.02
2018-07-31T05:26:09.794Z,99906.97
2018-07-31T05:28:35.772Z,99906.97
2018-07-31T05:31:01.775Z,99917.61
2018-07-31T05:33:27.749Z,99915.92
2018-07-31T05:35:53.731Z,99916.44
2018-07-31T05:38:19.689Z,99921.18
2018-07-31T05:40:45.663Z,99924.70
2018-07-31T05:43:11.620Z,99917.25
2018-07-31T05:45:38.348Z,99921.52
2018-07-31T05:48:04.299Z,99921.80
2018-07-31T05:50:30.268Z,99924.00
2018-07-31T05:52:56.323Z,99925.31
2018-07-31T05:55:22.294Z,99925.10
2018-07-31T05:57:48.264Z,99923.77
2018-07-31T06:00:14.244Z,99923.23
2018-07-31T06:02:40.191Z,99920.94
2018-07-31T06:05:06.209Z,99919.03
2018-07-31T06:07:32.193Z,99907.08
2018-07-31T06:09:58.140Z,99906.50
2018-07-31T06:12:24.119Z,99910.17
2018-07-31T06:14:50.093Z,99913.14
2018-07-31T06:17:16.123Z,99909.55
2018-07-31T06:19:42.099Z,99912.09
2018-07-31T06:22:08.144Z,99914.06
2018-07-31T06:24:34.173Z,99910.13
2018-07-31T06:27:00.212Z,99915.06
2018-07-31T06:29:26.134Z,99916.50
2018-07-31T06:31:52.109Z,99916.65
2018-07-31T06:34:18.861Z,99911.89
2018-07-31T06:36:44.865Z,99914.84
2018-07-31T06:39:10.853Z,99920.87
2018-07-31T06:41:37.924Z,99916.30
2018-07-31T06:44:03.947Z,99918.15
2018-07-31T06:46:29.936Z,99920.31
2018-07-31T06:48:55.928Z,99920.22
2018-07-31T06:51:22.023Z,99917.95
2018-07-31T07:01:23.754Z,99915.24
2018-07-31T07:03:49.766Z,99913.83
2018-07-31T07:06:15.810Z,99909.47
2018-07-31T07:08:41.786Z,99912.38
2018-07-31T07:11:07.877Z,99907.43
2018-07-31T07:13:35.917Z,99911.39
2018-07-31T07:16:06.222Z,99912.22
2018-07-31T07:18:32.265Z,99913.55
2018-07-31T07:20:58.283Z,99919.28
2018-07-31T07:23:24.251Z,99919.22
2018-07-31T07:25:50.261Z,99923.39
2018-07-31T07:28:16.894Z,99923.54
2018-07-31T07:30:42.944Z,99922.28
2018-07-31T07:33:09.787Z,99926.61
2018-07-31T07:35:36.609Z,99923.59
2018-07-31T07:38:09.516Z,99923.29
2018-07-31T07:40:35.582Z,99921.08
2018-07-31T07:43:01.583Z,99917.77
2018-07-31T07:45:27.627Z,99922.91
2018-07-31T07:47:53.917Z,99917.11
2018-07-31T07:50:19.986Z,99917.45
2018-07-31T07:52:45.985Z,99914.98
2018-07-31T07:55:12.171Z,99917.47
2018-07-31T08:00:12.872Z,99918.35
2018-07-31T08:02:38.875Z,99910.53
2018-07-31T08:05:04.943Z,99915.17
2018-07-31T08:07:30.934Z,99917.75
2018-07-31T08:09:56.877Z,99918.50
2018-07-31T08:12:22.860Z,99917.91
2018-07-31T08:14:48.819Z,99918.20
2018-07-31T08:17:14.808Z,99916.67
2018-07-31T08:19:40.763Z,99920.46
2018-07-31T08:22:06.764Z,99915.84
2018-07-31T08:24:32.747Z,99921.16
2018-07-31T08:26:58.740Z,99916.54
2018-07-31T08:29:24.739Z,99915.89
2018-07-31T08:31:50.794Z,99916.23
2018-07-31T08:34:16.781Z,99915.83
2018-07-31T08:36:42.739Z,99917.14
2018-07-31T08:39:08.756Z,99917.80
2018-07-31T08:41:34.701Z,99914.18
2018-07-31T08:44:00.637Z,99916.31
2018-07-31T08:46:26.606Z,99916.75
2018-07-31T08:48:52.573Z,99914.38
2018-07-31T08:51:18.608Z,99918.13
2018-07-31T08:53:44.654Z,99919.12
2018-07-31T08:56:10.624Z,99916.85
2018-07-31T08:58:36.636Z,99916.70
2018-07-31T09:01:02.595Z,99912.96
2018-07-31T09:03:28.543Z,99910.50
2018-07-31T09:05:54.485Z,99914.75
2018-07-31T09:08:20.521Z,99904.91
2018-07-31T09:10:46.467Z,99909.59
2018-07-31T09:13:12.484Z,99909.06
2018-07-31T09:15:38.474Z,99904.27
2018-07-31T09:18:04.438Z,99901.41
2018-07-31T09:20:30.423Z,99899.09
2018-07-31T09:22:56.380Z,99899.70
2018-07-31T09:25:22.330Z,99899.19
2018-07-31T09:27:48.392Z,99894.23
2018-07-31T09:30:14.336Z,99900.16
2018-07-31T09:32:40.287Z,99895.73
2018-07-31T09:35:06.275Z,99894.09
2018-07-31T09:37:32.251Z,99892.48
2018-07-31T09:39:58.205Z,99889.23
2018-07-31T09:42:24.154Z,99890.55
2018-07-31T09:44:50.150Z,99883.30
2018-07-31T09:47:16.137Z,99883.96
2018-07-31T09:49:42.119Z,99897.02
2018-07-31T09:52:08.102Z,99888.11
2018-07-31T09:54:34.063Z,99887.59
2018-07-31T09:57:00.014Z,99889.42
2018-07-31T09:59:25.994Z,99880.23
2018-07-31T10:01:51.976Z,99876.59
2018-07-31T10:04:17.939Z,99875.55
2018-07-31T10:06:43.878Z,99870.60
2018-07-31T10:09:09.836Z,99873.05
2018-07-31T10:11:35.794Z,99869.32
2018-07-31T10:14:01.789Z,99874.22
2018-07-31T10:16:27.779Z,99869.24
2018-07-31T10:18:53.751Z,99861.00
2018-07-31T10:21:19.778Z,99862.16
2018-07-31T10:23:45.736Z,99860.52
2018-07-31T10:26:11.716Z,99855.03
2018-07-31T10:28:37.709Z,99852.34
2018-07-31T10:31:03.755Z,99852.41
2018-07-31T10:33:29.685Z,99849.78
2018-07-31T10:35:55.688Z,99854.91
2018-07-31T10:38:21.696Z,99852.13
2018-07-31T10:40:47.662Z,99851.66
2018-07-31T10:43:13.617Z,99852.21
2018-07-31T10:45:39.643Z,99846.02
2018-07-31T10:48:05.626Z,99847.03
2018-07-31T10:50:31.666Z,99842.77
2018-07-31T10:52:57.564Z,99845.03
2018-07-31T10:55:23.540Z,99842.08
2018-07-31T10:57:49.528Z,99842.08
2018-07-31T11:00:15.476Z,99838.45
2018-07-31T11:02:41.484Z,99845.00
2018-07-31T11:05:07.428Z,99840.37
2018-07-31T11:07:33.424Z,99835.75
2018-07-31T11:09:59.378Z,99840.52
2018-07-31T11:12:25.324Z,99835.14
2018-07-31T11:14:51.287Z,99837.94
2018-07-31T11:17:17.349Z,99835.67
2018-07-31T11:19:43.331Z,99832.69
2018-07-31T11:22:09.289Z,99833.20
2018-07-31T11:24:35.248Z,99826.77
2018-07-31T11:27:01.202Z,99830.23
2018-07-31T11:29:27.193Z,99820.95
2018-07-31T11:31:53.125Z,99813.13
2018-07-31T11:34:19.111Z,99816.19
2018-07-31T11:36:45.093Z,99810.89
2018-07-31T11:39:11.058Z,99815.03
2018-07-31T11:41:37.009Z,99811.17
2018-07-31T11:44:02.991Z,99818.00
2018-07-31T11:46:28.936Z,99811.80
2018-07-31T11:48:54.889Z,99803.87
2018-07-31T11:51:20.876Z,99806.65
2018-07-31T11:53:46.870Z,99795.35
2018-07-31T11:56:12.893Z,99796.58
2018-07-31T11:58:38.847Z,99797.98
2018-07-31T12:01:04.813Z,99795.83
2018-07-31T12:03:30.790Z,99792.41
2018-07-31T12:05:56.772Z,99796.11
2018-07-31T12:08:23.817Z,99793.30
2018-07-31T12:10:49.762Z,99791.16
2018-07-31T12:13:15.729Z,99794.24
2018-07-31T12:15:41.725Z,99800.18
2018-07-31T12:18:07.715Z,99797.08
2018-07-31T12:20:33.729Z,99793.06
2018-07-31T12:22:59.701Z,99787.17
2018-07-31T12:25:25.683Z,99789.02
2018-07-31T12:27:51.637Z,99798.95
2018-07-31T12:30:17.590Z,99795.22
2018-07-31T12:32:43.616Z,99800.04
2018-07-31T12:35:09.616Z,99797.28
2018-07-31T12:37:35.576Z,99796.80
2018-07-31T12:40:01.870Z,99791.76
2018-07-31T12:42:27.847Z,99791.09
2018-07-31T12:44:53.782Z,99791.05
2018-07-31T12:47:19.901Z,99790.42
2018-07-31T12:49:45.854Z,99795.80
2018-07-31T12:52:11.825Z,99764.09
2018-07-31T12:54:37.785Z,99803.75
2018-07-31T12:57:03.735Z,99797.67
2018-07-31T12:59:29.709Z,99791.05
2018-07-31T13:01:55.718Z,99794.61
2018-07-31T13:04:21.630Z,99790.55
2018-07-31T13:06:47.582Z,99784.67
2018-07-31T13:09:13.540Z,99783.25
2018-07-31T13:11:39.491Z,99780.02
2018-07-31T13:14:05.433Z,99783.66
2018-07-31T13:16:31.381Z,99775.47
2018-07-31T13:18:57.399Z,99770.84
2018-07-31T13:21:23.348Z,99770.23
2018-07-31T13:23:49.312Z,99767.20
2018-07-31T13:26:15.280Z,99768.38
2018-07-31T13:28:41.240Z,99765.06
2018-07-31T13:31:07.198Z,99763.09
2018-07-31T13:33:33.216Z,99758.47
2018-07-31T13:38:31.482Z,99759.27
2018-07-31T13:40:57.416Z,99757.95
2018-07-31T13:43:23.490Z,99753.44
2018-07-31T13:45:49.451Z,99750.16
2018-07-31T13:48:15.473Z,99744.59
2018-07-31T13:50:41.465Z,99754.25
2018-07-31T13:53:07.442Z,99757.81
2018-07-31T13:55:33.525Z,99759.23
2018-07-31T13:57:59.543Z,99747.16
2018-07-31T14:00:25.562Z,99763.28
2018-07-31T14:02:51.524Z,99747.70
2018-07-31T14:05:17.551Z,99754.45
2018-07-31T14:07:44.544Z,99752.13
2018-07-31T14:10:10.516Z,99745.48
2018-07-31T14:12:36.487Z,99755.30
2018-07-31T14:15:02.503Z,99759.48
2018-07-31T14:17:28.469Z,99751.67
2018-07-31T14:19:54.447Z,99760.22
2018-07-31T14:22:20.407Z,99752.74
2018-07-31T14:24:46.431Z,99758.41
2018-07-31T14:27:12.400Z,99756.77
2018-07-31T14:29:38.398Z,99745.75
2018-07-31T14:32:04.353Z,99757.69
2018-07-31T14:34:30.325Z,99755.70
2018-07-31T14:39:28.764Z,99750.20
2018-07-31T14:41:54.739Z,99753.34
2018-07-31T14:44:20.719Z,99749.41
2018-07-31T14:46:46.693Z,99742.49
2018-07-31T14:49:12.668Z,99741.19
2018-07-31T14:51:38.604Z,99741.03
2018-07-31T14:54:04.617Z,99741.54
2018-07-31T14:56:30.596Z,99741.19
2018-07-31T14:58:56.721Z,99745.62
2018-07-31T15:01:22.699Z,99746.09
2018-07-31T15:03:48.636Z,99744.46
2018-07-31T15:06:14.684Z,99738.23
2018-07-31T15:08:40.679Z,99742.49
2018-07-31T15:11:06.794Z,99747.73
2018-07-31T15:13:34.773Z,99747.11
2018-07-31T15:16:00.778Z,99743.09
2018-07-31T15:18:29.013Z,99740.27
2018-07-31T15:20:55.027Z,99746.22
2018-07-31T15:23:22.181Z,99742.65
2018-07-31T15:25:48.154Z,99739.34
2018-07-31T15:28:14.119Z,99743.42
2018-07-31T15:30:40.141Z,99748.34
2018-07-31T15:33:06.637Z,99743.24
2018-07-31T15:35:32.637Z,99744.67
2018-07-31T15:37:58.623Z,99743.51
2018-07-31T15:40:24.624Z,99737.25
2018-07-31T15:42:50.591Z,99732.61
2018-07-31T15:45:16.599Z,99731.77
2018-07-31T15:47:42.644Z,99733.50
2018-07-31T15:50:08.644Z,99726.34
2018-07-31T15:52:34.645Z,99727.30
2018-07-31T15:55:01.663Z,99728.70
2018-07-31T15:57:27.670Z,99727.71
2018-07-31T15:59:53.691Z,99725.03
2018-07-31T16:02:19.673Z,99728.45
2018-07-31T16:04:45.660Z,99727.77
2018-07-31T16:09:44.320Z,99732.31
2018-07-31T16:12:10.309Z,99728.91
2018-07-31T16:14:36.477Z,99725.61
2018-07-31T16:17:04.587Z,99723.44
2018-07-31T16:19:30.614Z,99719.98
2018-07-31T16:21:56.600Z,99715.90
2018-07-31T16:24:22.609Z,99719.03
2018-07-31T16:26:52.147Z,99718.02
2018-07-31T16:29:18.113Z,99721.90
2018-07-31T16:31:44.110Z,99723.52
2018-07-31T16:34:10.085Z,99719.84
2018-07-31T16:36:36.060Z,99719.52
2018-07-31T16:39:02.047Z,99720.14
2018-07-31T16:41:28.101Z,99720.47
2018-07-31T16:43:54.593Z,99716.22
2018-07-31T16:46:20.825Z,99721.46
2018-07-31T16:48:46.816Z,99720.14
2018-07-31T16:51:12.927Z,99729.33
2018-07-31T16:53:38.892Z,99727.03
2018-07-31T16:56:09.364Z,99722.47
2018-07-31T16:58:35.408Z,99728.04
2018-07-31T17:01:01.374Z,99729.42
2018-07-31T17:03:27.349Z,99725.34
2018-07-31T17:05:53.311Z,99723.62
2018-07-31T17:08:19.280Z,99728.40
2018-07-31T17:13:17.699Z,99723.78
2018-07-31T17:15:43.665Z,99727.09
2018-07-31T17:18:09.740Z,99729.08
2018-07-31T17:20:36.264Z,99725.78
2018-07-31T17:23:02.376Z,99727.39
2018-07-31T17:25:28.559Z,99731.55
2018-07-31T17:27:54.567Z,99734.38
2018-07-31T17:30:20.541Z,99735.48
2018-07-31T17:32:46.573Z,99737.00
2018-07-31T17:35:12.643Z,99739.97
2018-07-31T17:37:38.563Z,99743.18
2018-07-31T17:40:04.540Z,99746.48
2018-07-31T17:42:30.511Z,99741.72
2018-07-31T17:44:56.479Z,99744.04
2018-07-31T17:47:22.485Z,99742.20
2018-07-31T17:49:48.582Z,99742.14
2018-07-31T17:52:14.607Z,99746.81
2018-07-31T17:57:19.643Z,99751.55
2018-07-31T17:59:45.741Z,99747.89
2018-07-31T18:02:11.770Z,99749.59
2018-07-31T18:04:37.762Z,99749.53
2018-07-31T18:07:03.824Z,99758.77
2018-07-31T18:09:30.090Z,99756.03
2018-07-31T18:11:56.437Z,99754.09
2018-07-31T18:14:22.855Z,99761.75
2018-07-31T18:16:48.803Z,99756.17
2018-07-31T18:19:14.820Z,99754.77
2018-07-31T18:21:40.863Z,99760.44
2018-07-31T18:24:07.020Z,99768.08
2018-07-31T18:34:08.270Z,99776.44
2018-07-31T18:36:35.409Z,99778.20
2018-07-31T18:39:01.578Z,99775.71
2018-07-31T18:44:00.268Z,99781.97
2018-07-31T18:46:37.263Z,99784.34
2018-07-31T18:57:12.779Z,99792.01
2018-07-31T19:03:48.924Z,99798.69
2018-07-31T19:06:15.272Z,99793.16
2018-07-31T19:08:42.010Z,99803.34
2018-07-31T19:11:11.206Z,99795.75
2018-07-31T19:13:37.400Z,99804.24
2018-07-31T19:16:03.468Z,99799.41
2018-07-31T19:18:32.543Z,99805.05
2018-07-31T19:20:58.653Z,99811.01
2018-07-31T19:23:25.324Z,99813.95
2018-07-31T19:25:51.709Z,99817.56
2018-07-31T19:28:18.046Z,99822.06
2018-07-31T19:30:44.103Z,99819.58
2018-07-31T19:33:10.795Z,99821.28
2018-07-31T19:35:36.868Z,99825.34
2018-07-31T19:38:04.164Z,99826.47
2018-07-31T19:40:30.356Z,99828.13
2018-07-31T19:42:56.391Z,99828.94
2018-07-31T19:45:22.471Z,99830.84
2018-07-31T19:47:48.825Z,99830.08
2018-07-31T19:50:15.665Z,99838.23
2018-07-31T19:52:41.788Z,99842.42
2018-07-31T19:55:07.910Z,99841.25
2018-07-31T19:57:36.392Z,99840.23
2018-07-31T20:00:02.625Z,99837.98
2018-07-31T20:02:28.729Z,99840.11
2018-07-31T20:04:54.865Z,99836.84
2018-07-31T20:07:22.791Z,99838.80
2018-07-31T20:09:49.164Z,99841.63
2018-07-31T20:12:15.772Z,99841.58
2018-07-31T20:14:41.958Z,99850.30
2018-07-31T20:17:08.027Z,99851.94
2018-07-31T20:19:35.153Z,99851.16
2018-07-31T20:22:01.274Z,99852.72
2018-07-31T20:24:27.515Z,99851.16
2018-07-31T20:26:53.679Z,99848.08
2018-07-31T20:29:24.474Z,99851.77
2018-07-31T20:31:51.377Z,99850.38
2018-07-31T20:34:17.701Z,99850.17
2018-07-31T20:36:45.478Z,99850.19
2018-07-31T20:39:11.794Z,99853.49
2018-07-31T20:41:38.100Z,99859.53
2018-07-31T20:44:07.619Z,99863.02
2018-07-31T20:46:33.745Z,99865.07
2018-07-31T20:49:01.050Z,99868.02
2018-07-31T20:51:27.113Z,99870.34
2018-07-31T20:53:53.107Z,99867.91
2018-07-31T20:56:19.224Z,99870.91
2018-07-31T20:58:47.960Z,99866.59
2018-07-31T21:01:14.037Z,99869.94
2018-07-31T21:03:40.126Z,99876.52
2018-07-31T21:06:06.276Z,99879.72
2018-07-31T21:08:32.341Z,99881.86
2018-07-31T21:10:58.315Z,99885.30
2018-07-31T21:13:24.312Z,99885.17
2018-07-31T21:15:50.350Z,99886.89
2018-07-31T21:18:16.383Z,99888.79
2018-07-31T21:20:42.407Z,99895.30
2018-07-31T21:23:08.407Z,99890.75
2018-07-31T21:25:34.440Z,99895.84
2018-07-31T21:28:00.460Z,99893.59
2018-07-31T21:30:26.455Z,99891.66
2018-07-31T21:32:52.440Z,99894.55
2018-07-31T21:35:18.460Z,99895.04
2018-07-31T21:37:44.425Z,99901.91
2018-07-31T21:40:10.407Z,99900.00
2018-07-31T21:42:37.506Z,99902.81
2018-07-31T21:45:03.474Z,99902.50
2018-07-31T21:47:29.542Z,99904.44
2018-07-31T21:49:55.495Z,99907.45
2018-07-31T21:52:21.499Z,99286.35
2018-07-31T21:54:50.423Z,99901.31
2018-07-31T21:57:16.485Z,99905.80
2018-07-31T21:59:42.547Z,99912.45
2018-07-31T22:02:09.629Z,99913.95
2018-07-31T22:04:35.630Z,99910.37
2018-07-31T22:07:01.632Z,99913.20
2018-07-31T22:09:27.632Z,99921.97
2018-07-31T22:11:53.601Z,99920.29
2018-07-31T22:14:19.569Z,99915.56
2018-07-31T22:16:45.527Z,99919.63
2018-07-31T22:19:11.508Z,99917.28
2018-07-31T22:21:37.870Z,99920.09
2018-07-31T22:24:03.867Z,99935.53
2018-07-31T22:26:29.853Z,99923.20
2018-07-31T22:28:55.802Z,99924.86
2018-07-31T22:31:21.791Z,99925.09
2018-07-31T22:33:47.732Z,99927.82
2018-07-31T22:36:13.715Z,99926.28
2018-07-31T22:38:39.703Z,99937.42
2018-07-31T22:41:05.679Z,99931.05
2018-07-31T22:43:31.643Z,99934.00
2018-07-31T22:45:57.617Z,99935.79
2018-07-31T22:48:23.563Z,99936.97
2018-07-31T22:50:49.533Z,99939.77
2018-07-31T22:53:15.497Z,99937.74
2018-07-31T22:55:41.456Z,99940.63
2018-07-31T22:58:07.536Z,99941.89
2018-07-31T23:00:33.388Z,99945.72
2018-07-31T23:02:59.343Z,99946.45
2018-07-31T23:05:25.321Z,99945.12
2018-07-31T23:07:51.361Z,99941.13
2018-07-31T23:10:17.360Z,99946.05
2018-07-31T23:12:43.332Z,99942.23
2018-07-31T23:15:09.284Z,99945.91
2018-07-31T23:17:35.257Z,99943.80
2018-07-31T23:20:01.227Z,99943.17
2018-07-31T23:22:27.205Z,99937.78
2018-07-31T23:24:53.173Z,99942.09
2018-07-31T23:27:19.133Z,99936.27
2018-07-31T23:29:45.116Z,99934.30
2018-07-31T23:32:11.081Z,99933.08
2018-07-31T23:34:37.051Z,99929.82
2018-07-31T23:37:03.030Z,99933.11
2018-07-31T23:39:29.041Z,99935.86
2018-07-31T23:41:55.027Z,99941.72
2018-07-31T23:44:20.987Z,99941.31
2018-07-31T23:46:46.960Z,99943.14
2018-07-31T23:49:12.929Z,99941.84
2018-07-31T23:51:38.923Z,99938.44
2018-07-31T23:54:04.900Z,99946.89
2018-07-31T23:56:30.861Z,99945.86
2018-07-31T23:58:56.824Z,99948.48
